createdAt,value
2017-09-17T00:00:41.245Z,96295.28
2017-09-17T00:03:06.987Z,96295.53
2017-09-17T00:05:32.771Z,96304.09
2017-09-17T00:07:58.510Z,96300.02
2017-09-17T00:10:24.371Z,96297.76
2017-09-17T00:12:50.108Z,96301.27
2017-09-17T00:15:16.686Z,96299.29
2017-09-17T00:17:42.453Z,96305.75
2017-09-17T00:20:08.196Z,96303.11
2017-09-17T00:22:33.966Z,96298.36
2017-09-17T00:25:00.243Z,96302.68
2017-09-17T00:27:26.100Z,96296.09
2017-09-17T00:29:51.852Z,96300.22
2017-09-17T00:32:17.647Z,96300.33
2017-09-17T00:34:44.119Z,96299.37
2017-09-17T00:37:09.868Z,96295.23
2017-09-17T00:39:35.972Z,96292.15
2017-09-17T00:42:03.003Z,96296.95
2017-09-17T00:44:28.831Z,96292.77
2017-09-17T00:46:54.596Z,96298.97
2017-09-17T00:49:20.359Z,96292.86
2017-09-17T00:51:46.151Z,96292.73
2017-09-17T00:54:11.983Z,96293.95
2017-09-17T00:56:37.745Z,96299.80
2017-09-17T00:59:03.545Z,96291.06
2017-09-17T01:01:29.358Z,96304.48
2017-09-17T01:03:55.140Z,96303.33
2017-09-17T01:06:20.895Z,96299.64
2017-09-17T01:08:46.679Z,96299.59
2017-09-17T01:11:12.514Z,96304.82
2017-09-17T01:13:38.324Z,96295.50
2017-09-17T01:16:04.109Z,96296.46
2017-09-17T01:18:29.861Z,96296.28
2017-09-17T01:20:55.658Z,96294.84
2017-09-17T01:23:21.411Z,96293.73
2017-09-17T01:25:47.207Z,96300.00
2017-09-17T01:28:13.035Z,96294.33
2017-09-17T01:30:38.793Z,96304.00
2017-09-17T01:33:04.588Z,96296.58
2017-09-17T01:35:30.376Z,96291.23
2017-09-17T01:37:56.144Z,96295.63
2017-09-17T01:40:22.803Z,96299.63
2017-09-17T01:42:48.594Z,96289.63
2017-09-17T01:45:14.449Z,96289.11
2017-09-17T01:47:40.197Z,96287.25
2017-09-17T01:50:05.967Z,96286.25
2017-09-17T01:52:31.780Z,96285.39
2017-09-17T01:54:57.635Z,96287.67
2017-09-17T01:57:23.433Z,96281.54
2017-09-17T01:59:49.191Z,96291.06
2017-09-17T02:02:14.963Z,96296.17
2017-09-17T02:04:40.724Z,96287.95
2017-09-17T02:07:06.505Z,96289.37
2017-09-17T02:09:32.925Z,96289.23
2017-09-17T02:11:58.695Z,96289.67
2017-09-17T02:14:25.880Z,96291.59
2017-09-17T02:16:51.659Z,96291.78
2017-09-17T02:19:17.423Z,96290.42
2017-09-17T02:21:43.219Z,96285.42
2017-09-17T02:24:08.986Z,96285.56
2017-09-17T02:26:34.767Z,96294.11
2017-09-17T02:29:00.655Z,96297.51
2017-09-17T02:31:26.467Z,96293.12
2017-09-17T02:33:52.203Z,96291.85
2017-09-17T02:36:18.967Z,96294.05
2017-09-17T02:38:44.936Z,96292.09
2017-09-17T02:41:10.707Z,96296.01
2017-09-17T02:43:36.951Z,96301.61
2017-09-17T02:46:02.716Z,96305.86
2017-09-17T02:48:28.514Z,96302.00
2017-09-17T02:50:54.284Z,96306.00
2017-09-17T02:53:20.069Z,96300.47
2017-09-17T02:55:46.118Z,96297.00
2017-09-17T02:58:11.931Z,96295.70
2017-09-17T03:00:37.703Z,96304.69
2017-09-17T03:03:03.486Z,96303.77
2017-09-17T03:05:29.300Z,96305.80
2017-09-17T03:07:55.055Z,96302.78
2017-09-17T03:10:20.799Z,96298.03
2017-09-17T03:12:46.601Z,96306.66
2017-09-17T03:15:12.351Z,96303.81
2017-09-17T03:17:38.115Z,96295.75
2017-09-17T03:20:03.901Z,96302.69
2017-09-17T03:22:29.667Z,96306.98
2017-09-17T03:24:55.505Z,96304.45
2017-09-17T03:27:21.267Z,96308.95
2017-09-17T03:29:47.063Z,96311.08
2017-09-17T03:32:12.812Z,96309.14
2017-09-17T03:34:38.574Z,96304.73
2017-09-17T03:37:04.396Z,96308.00
2017-09-17T03:39:30.180Z,96299.33
2017-09-17T03:41:55.982Z,96302.08
2017-09-17T03:44:21.740Z,96303.58
2017-09-17T03:46:47.493Z,96304.71
2017-09-17T03:49:13.287Z,96300.84
2017-09-17T03:51:39.048Z,96300.31
2017-09-17T03:54:04.790Z,96305.64
2017-09-17T03:56:30.600Z,96306.88
2017-09-17T03:58:56.393Z,96310.61
2017-09-17T04:01:22.147Z,96309.81
2017-09-17T04:03:47.944Z,96308.20
2017-09-17T04:06:13.695Z,96311.86
2017-09-17T04:08:39.444Z,96311.65
2017-09-17T04:11:05.291Z,96315.09
2017-09-17T04:13:31.040Z,96327.05
2017-09-17T04:15:56.823Z,96318.64
2017-09-17T04:18:22.575Z,96315.94
2017-09-17T04:20:48.353Z,96316.88
2017-09-17T04:23:14.161Z,96316.00
2017-09-17T04:25:39.934Z,96322.86
2017-09-17T04:28:05.713Z,96323.22
2017-09-17T04:30:31.495Z,96330.59
2017-09-17T04:32:57.296Z,96331.38
2017-09-17T04:35:23.729Z,96332.73
2017-09-17T04:37:49.480Z,96323.87
2017-09-17T04:40:15.271Z,96337.78
2017-09-17T04:42:41.064Z,96337.25
2017-09-17T04:45:06.811Z,96341.50
2017-09-17T04:47:32.561Z,96338.48
2017-09-17T04:49:58.386Z,96342.30
2017-09-17T04:52:24.136Z,96343.27
2017-09-17T04:54:49.907Z,96344.84
2017-09-17T04:57:15.711Z,96344.00
2017-09-17T04:59:41.520Z,96347.09
2017-09-17T05:02:07.275Z,96351.58
2017-09-17T05:04:33.095Z,96351.73
2017-09-17T05:06:58.856Z,96353.40
2017-09-17T05:09:24.691Z,96353.30
2017-09-17T05:11:50.436Z,96358.18
2017-09-17T05:14:16.220Z,96355.06
2017-09-17T05:16:41.972Z,96362.06
2017-09-17T05:19:07.727Z,96364.20
2017-09-17T05:21:33.587Z,96356.10
2017-09-17T05:23:59.336Z,96362.33
2017-09-17T05:26:25.124Z,96360.08
2017-09-17T05:28:51.970Z,96367.91
2017-09-17T05:31:17.712Z,96375.98
2017-09-17T05:33:43.562Z,96378.84
2017-09-17T05:36:09.320Z,96373.80
2017-09-17T05:38:35.113Z,96378.07
2017-09-17T05:41:00.926Z,96377.97
2017-09-17T05:43:26.688Z,96373.58
2017-09-17T05:45:53.852Z,96372.00
2017-09-17T05:48:19.672Z,96373.77
2017-09-17T05:50:45.432Z,96374.52
2017-09-17T05:53:11.237Z,96374.31
2017-09-17T05:55:37.142Z,96377.34
2017-09-17T05:58:02.889Z,96374.72
2017-09-17T06:00:28.627Z,96371.71
2017-09-17T06:02:54.932Z,96377.94
2017-09-17T06:05:20.791Z,96377.53
2017-09-17T06:07:46.604Z,96369.95
2017-09-17T06:10:12.463Z,96382.16
2017-09-17T06:12:38.232Z,96382.38
2017-09-17T06:15:04.040Z,96383.53
2017-09-17T06:17:29.808Z,96381.23
2017-09-17T06:19:55.663Z,96387.38
2017-09-17T06:22:21.457Z,96387.95
2017-09-17T06:24:47.212Z,96394.38
2017-09-17T06:27:12.981Z,96394.69
2017-09-17T06:29:38.820Z,96393.69
2017-09-17T06:32:04.581Z,96398.50
2017-09-17T06:34:30.436Z,96393.73
2017-09-17T06:36:57.156Z,96386.21
2017-09-17T06:39:23.023Z,96387.54
2017-09-17T06:41:48.875Z,96387.75
2017-09-17T06:44:14.683Z,96391.02
2017-09-17T06:46:40.534Z,96391.95
2017-09-17T06:49:06.328Z,96392.27
2017-09-17T06:51:32.092Z,96389.03
2017-09-17T06:53:57.942Z,96392.92
2017-09-17T06:56:23.806Z,96394.65
2017-09-17T06:58:49.639Z,96402.84
2017-09-17T07:01:15.444Z,96402.34
2017-09-17T07:03:41.246Z,96403.83
2017-09-17T07:06:07.127Z,96410.05
2017-09-17T07:08:32.980Z,96409.75
2017-09-17T07:10:58.747Z,96406.98
2017-09-17T07:13:24.583Z,96402.30
2017-09-17T07:15:50.375Z,96406.94
2017-09-17T07:18:16.159Z,96403.20
2017-09-17T07:20:41.909Z,96410.72
2017-09-17T07:23:07.732Z,96379.27
2017-09-17T07:25:33.483Z,96412.75
2017-09-17T07:27:59.275Z,96414.19
2017-09-17T07:30:25.068Z,96425.44
2017-09-17T07:32:50.836Z,96417.91
2017-09-17T07:35:16.663Z,96425.36
2017-09-17T07:37:42.455Z,96430.12
2017-09-17T07:40:08.239Z,96420.61
2017-09-17T07:42:34.007Z,96425.55
2017-09-17T07:44:59.811Z,96420.56
2017-09-17T07:47:25.608Z,96422.52
2017-09-17T07:49:52.008Z,96424.50
2017-09-17T07:52:18.151Z,96423.72
2017-09-17T07:54:44.204Z,96428.20
2017-09-17T07:57:10.427Z,96428.44
2017-09-17T07:59:36.465Z,96432.70
2017-09-17T08:02:03.596Z,96429.17
2017-09-17T08:04:29.835Z,96423.70
2017-09-17T08:06:55.864Z,96429.56
2017-09-17T08:09:22.117Z,96422.05
2017-09-17T08:11:48.439Z,96423.52
2017-09-17T08:14:14.288Z,96421.78
2017-09-17T08:36:39.668Z,96416.73
2017-09-17T08:56:20.995Z,96407.94
2017-09-17T09:15:36.322Z,96393.73
2017-09-17T09:18:33.656Z,96388.53
2017-09-17T09:37:42.339Z,96384.72
2017-09-17T09:43:29.354Z,96379.35
2017-09-17T09:46:18.842Z,96382.63
2017-09-17T09:49:15.960Z,96380.20
2017-09-17T09:52:13.343Z,96368.69
2017-09-17T10:05:01.188Z,96364.39
2017-09-17T10:07:50.916Z,96362.92
2017-09-17T10:10:47.740Z,96360.82
2017-09-17T10:13:45.056Z,96348.60
2017-09-17T10:16:41.963Z,96339.34
2017-09-17T10:26:33.980Z,96332.53
2017-09-17T10:46:14.111Z,96317.20
2017-09-17T10:48:39.895Z,96319.80
2017-09-17T10:51:28.896Z,96320.30
2017-09-17T11:10:41.774Z,96344.41
2017-09-17T11:13:30.763Z,96332.66
2017-09-17T11:32:43.391Z,96333.23
2017-09-17T11:35:32.976Z,96333.77
2017-09-17T11:38:29.780Z,96341.83
2017-09-17T11:41:26.984Z,96340.13
2017-09-17T11:54:12.319Z,96329.45
2017-09-17T11:57:02.664Z,96330.58
2017-09-17T12:16:15.211Z,96282.37
2017-09-17T12:19:04.210Z,96285.82
2017-09-17T12:22:01.071Z,96287.45
2017-09-17T12:24:58.384Z,96291.44
2017-09-17T12:27:55.844Z,96288.52
2017-09-17T12:37:44.588Z,96293.60
2017-09-17T12:57:19.492Z,96264.11
2017-09-17T12:59:45.303Z,96265.63
2017-09-17T13:19:21.699Z,96247.03
2017-09-17T13:38:34.255Z,96249.75
2017-09-17T13:44:21.261Z,96240.16
2017-09-17T13:47:10.207Z,96236.77
2017-09-17T13:50:08.028Z,96247.66
2017-09-17T13:53:05.075Z,96244.62
2017-09-17T14:05:53.484Z,96239.09
2017-09-17T14:08:57.500Z,96239.59
2017-09-17T14:11:54.375Z,96232.02
2017-09-17T14:31:07.716Z,96233.75
2017-09-17T14:34:04.488Z,96229.63
2017-09-17T14:37:01.087Z,96230.95
2017-09-17T14:39:58.639Z,96219.19
2017-09-17T14:49:33.548Z,96215.14
2017-09-17T15:09:06.567Z,96206.09
2017-09-17T15:11:32.323Z,96208.59
2017-09-17T15:31:15.590Z,96214.40
2017-09-17T15:33:41.335Z,96212.70
2017-09-17T15:53:20.379Z,96228.33
2017-09-17T16:12:30.467Z,96251.61
2017-09-17T16:18:17.699Z,96250.33
2017-09-17T16:21:07.152Z,96249.14
2017-09-17T16:24:03.959Z,96244.62
2017-09-17T16:27:00.791Z,96248.96
2017-09-17T16:29:57.649Z,96250.43
2017-09-17T16:32:54.544Z,96251.66
2017-09-17T16:42:00.960Z,96258.86
2017-09-17T16:44:49.760Z,96265.05
2017-09-17T16:47:46.444Z,96268.16
2017-09-17T16:50:43.180Z,96272.39
2017-09-17T17:03:27.870Z,96281.24
2017-09-17T17:06:17.143Z,96284.75
2017-09-17T17:25:28.931Z,96317.02
2017-09-17T17:45:03.275Z,96328.48
2017-09-17T17:47:29.072Z,96325.58
2017-09-17T17:50:18.624Z,96328.83
2017-09-17T17:53:15.829Z,96332.20
2017-09-17T18:09:06.743Z,96337.39
2017-09-17T18:28:43.688Z,96362.70
2017-09-17T18:48:07.684Z,96376.77
2017-09-17T18:51:10.807Z,96381.02
2017-09-17T18:53:36.564Z,96379.86
2017-09-17T19:13:12.569Z,96377.20
2017-09-17T19:15:38.357Z,96377.86
2017-09-17T19:18:28.203Z,96383.28
2017-09-17T19:21:25.265Z,96386.38
2017-09-17T19:37:16.488Z,96395.34
2017-09-17T19:40:06.411Z,96394.27
2017-09-17T19:59:20.543Z,96389.52
2017-09-17T20:18:58.079Z,96399.36
2017-09-17T20:21:23.876Z,96387.39
2017-09-17T20:24:13.675Z,96392.47
2017-09-17T20:43:26.140Z,96399.50
2017-09-17T20:46:15.640Z,96404.77
2017-09-17T20:49:12.964Z,96403.56
2017-09-17T20:52:10.120Z,96400.23
2017-09-17T20:55:07.511Z,96408.80
2017-09-17T20:58:05.001Z,96407.88
2017-09-17T21:01:02.330Z,96400.23
2017-09-17T21:03:59.754Z,96401.86
2017-09-17T21:06:25.569Z,96404.13
2017-09-17T21:09:14.406Z,96405.34
2017-09-17T21:12:11.008Z,96401.14
2017-09-17T21:31:18.751Z,96407.72
2017-09-17T21:50:29.847Z,96434.85
2017-09-17T21:53:19.058Z,96432.91
2017-09-17T22:12:31.803Z,96428.63
2017-09-17T22:15:21.699Z,96423.96
2017-09-17T22:18:18.860Z,96432.55
2017-09-17T22:21:16.288Z,96430.23
2017-09-17T22:24:14.119Z,96429.81
2017-09-17T22:27:11.207Z,96429.81
2017-09-17T22:36:19.763Z,96431.39
2017-09-17T22:39:09.167Z,96435.64
2017-09-17T22:42:06.585Z,96428.01
2017-09-17T23:01:30.216Z,96434.28
2017-09-17T23:04:27.159Z,96444.02
2017-09-17T23:07:24.947Z,96435.06
2017-09-17T23:10:21.907Z,96440.97
2017-09-17T23:13:19.119Z,96442.87
2017-09-17T23:16:16.152Z,96442.30
2017-09-17T23:19:13.616Z,96438.45
2017-09-17T23:21:39.413Z,96440.27
2017-09-17T23:24:28.459Z,96440.75
2017-09-17T23:43:41.312Z,96448.57
2017-09-17T23:46:30.615Z,96452.95
2017-09-17T23:49:27.741Z,96446.61
2017-09-17T23:52:24.839Z,96447.10
2017-09-17T23:55:22.019Z,96449.22
2017-09-17T23:58:19.067Z,96443.22
